24h Messdaten per 22.05.2018 um 02:24:02

Datum Zeit Luftdruck Temp Balkon Feuchte Balkon Temp Strasse Feuchte Strasse Wind km/h Wind Boe Wind aus (Grad) Regen l/15min Licht Lux Sonne h/Monat
22.05.18 02:24:02 1004 11.7 48 15.7 76 0 6.01
22.05.18 02:19:02 1004 11.8 48 15.8 76 0 6.01
22.05.18 02:14:02 1004 11.8 48 15.9 75 0 6.01
22.05.18 02:09:01 1004 11.9 47 16.0 75 0 6.01
22.05.18 02:04:01 1004 12.0 46 16.1 75 0 6.01
22.05.18 01:59:01 1004 12.1 46 16.2 74 0 6.01
22.05.18 01:54:02 1004 12.1 45 16.3 74 0 6.01
22.05.18 01:49:02 1004 12.2 45 16.4 74 0 6.01
22.05.18 01:44:02 1004 12.3 44 16.5 74 0 6.01
22.05.18 01:39:01 1004 12.5 43 16.6 74 0 6.01
22.05.18 01:34:01 1004 12.7 41 16.7 73 0 6.01
22.05.18 01:29:01 1004 12.9 40 16.8 73 0.0 0 6.01
22.05.18 01:24:01 1004 13.1 39 16.9 73 0.0 0 6.01
22.05.18 01:19:01 1004 13.1 38 16.9 73 0.0 0 6.01
22.05.18 01:14:01 1004 13.3 37 16.9 73 0.0 0 6.01
22.05.18 01:09:01 1004 13.3 37 16.9 73 0.0 0 6.01
22.05.18 01:04:01 1004 13.6 35 0.0 0 6.01
22.05.18 00:59:01 1004 13.5 37 17.0 73 0.0 0 6.01
22.05.18 00:54:01 1004 13.4 37 17.0 73 0.0 0 6.01
22.05.18 00:49:01 1004 13.5 37 17.1 72 0.0 0 6.01
22.05.18 00:44:01 1004 13.6 37 17.2 72 0.0 0 6.01
22.05.18 00:39:02 1004 13.5 38 17.3 72 0.0 0 6.01
22.05.18 00:34:02 1004 13.4 38 17.5 71 0.0 0 6.01
22.05.18 00:29:02 1004 13.8 37 17.6 71 1.8 2.5 90 0.0 0 6.01
22.05.18 00:24:01 1004 14.1 34 17.6 71 1.8 2.5 90 0.0 0 6.01
22.05.18 00:19:01 1004 14.2 35 17.7 71 1.1 2.5 135 0.0 0 6.01
22.05.18 00:14:01 1005 14.1 35 17.7 71 1.1 2.2 112.5 0.0 0 6.01
22.05.18 00:09:02 1005 14.2 35 17.7 71 1.1 2.2 112.5 0.0 0 6.01
22.05.18 00:04:02 1004 14.1 36 17.7 71 1.1 1.8 112.5 0.0 0 6.01
21.05.18 23:59:02 1004 13.6 42 17.9 71 0.4 1.8 90 0.0 0 6.01
21.05.18 23:54:01 13.3 43 18.0 71 0.4 1.8 90 0.0 0 6.01
21.05.18 23:49:01 1004 13.2 42 18.0 70 0.0 0.0 112.5 0.0 0 6.01
21.05.18 23:44:01 1004 13.4 42 18.1 70 0.4 1.4 112.5 0.0 0 6.01
21.05.18 23:39:02 1004 13.2 41 18.3 70 0.4 1.4 112.5 0.0 0 6.01
21.05.18 23:34:02 1004 13.3 39 18.3 69 0.7 1.4 90 0.0 0 6.01
21.05.18 23:29:02 1004 13.6 38 18.3 68 0.4 2.5 135 0.0 0 6.01
21.05.18 23:24:01 1004 14.0 37 18.4 67 0.4 2.5 135 0.0 0 6.01
21.05.18 23:19:01 1004 13.9 38 18.6 67 0.7 0.0 67.5 0.0 0 6.01
21.05.18 23:14:01 1004 13.5 39 18.8 67 1.8 1.8 67.5 0.0 0 6.01
21.05.18 23:09:01 1004 13.4 38 19.0 67 1.8 1.8 67.5 0.0 0 6.01
21.05.18 23:04:01 1004 14.0 40 19.1 67 1.4 2.9 112.5 0.0 0 6.01
21.05.18 22:59:01 1004 13.3 39 1.4 0.0 112.5 0.0 0 6.01
21.05.18 22:54:01 1004 13.5 37 19.3 66 1.4 0.0 112.5 0.0 0 6.01
21.05.18 22:49:01 1004 13.9 35 19.5 64 1.8 1.8 90 0.0
21.05.18 22:44:01 1004 14.5 33 19.5 64 0.7 1.8 135 0.0 0 6.01
21.05.18 22:39:02 1004 14.4 33 19.5 64 0.7 1.8 135 0.0 0 6.01
21.05.18 22:34:02 1004 14.5 33 19.6 64 0.4 0.0 90 0.0 0 6.01
21.05.18 22:29:02 1004 14.9 32 19.7 63 0.7 1.8 112.5 0.0 0 6.01
21.05.18 22:24:02 1004 15.2 27 0.7 1.8 112.5 0.0 0 6.01
21.05.18 22:19:02 1004 15.2 28 20.0 61 0.7 1.8 112.5 0.0 0 6.01
21.05.18 22:14:02 1004 15.4 27 20.1 60 1.4 1.8 112.5 0.0 0 6.01
21.05.18 22:09:03 15.5 21 20.2 57 1.4 1.8 112.5 0.0 1 6.01
21.05.18 22:04:03 1004 15.2 21 20.4 56 0.7 1.8 112.5 0.0 4 6.01
21.05.18 21:59:02 1004 15.7 20 20.5 54 0.0 0.0 45 0.0 9 6.01
21.05.18 21:54:01 1004 15.4 22 20.7 53 0.0 0.0 45 0.0 17 6.01
21.05.18 21:49:01 1004 14.8 29 20.9 54 0.0 0.0 90 0.0 21 6.01
21.05.18 21:44:01 1004 14.6 28 21.0 53 0.0 0.0 90 0.0 35 6.01
21.05.18 21:39:03 1004 21.0 54 0.0 0.0 90 0.0 50 6.01
21.05.18 21:34:03 1004 14.9 20 21.1 54 0.0 0.0 90 0.0 73 6.01
21.05.18 21:29:02 1004 15.1 26 21.2 52 0.4 0.0 135 0.0 107 6.01
21.05.18 21:24:02 1004 16.1 20 21.3 51 0.4 0.0 135 0.0 135 6.01
21.05.18 21:19:02 1004 16.8 20 21.4 44 0.4 0.0 90 0.0 168 6.01
21.05.18 21:14:02 1004 18.1 20 21.3 47 0.0 0.0 112.5 0.0 268 6.01
21.05.18 21:09:02 1004 17.6 20 21.4 54 0.0 0.0 112.5 0.0 417 6.01
21.05.18 21:04:02 1004 17.6 20 21.5 56 0.0 0.0 90 0.0 821 6.01
21.05.18 20:59:02 1004 17.4 20 21.7 56 0.0 0.0 22.5 0.0 1010 6.01
21.05.18 20:54:02 1004 21.9 55 0.0 0.0 22.5 0.0 1290 6.01
21.05.18 20:49:02 1004 22.0 54 0.0 0.0 67.5 0.0
21.05.18 20:44:02 1004 22.4 52 0.0 0.0 90 0.0 1490 6.01
21.05.18 20:39:03 1004 23.0 47 0.0 0.0 90 0.0 1350 6.01
21.05.18 20:34:02 1004 23.2 45 0.0 0.0 337.5 0.0 1030 6.01
21.05.18 20:29:02 1004 23.4 43 0.4 0.0 45 0.0 745 6.01
21.05.18 20:24:02 1004 17.2 20 23.5 38 0.4 0.0 45 0.0 548 6.01
21.05.18 20:19:02 1004 17.5 20 0.4 1.4 45 0.0 484 6.01
21.05.18 20:14:02 1004 18.4 20 23.8 32 0.4 0.0 22.5 0.0 728 6.01
21.05.18 20:09:01 1004 20.7 20 23.8 29 0.4 0.0 22.5 0.0 1500 6.01
21.05.18 20:04:01 1004 21.1 20 23.9 28 0.4 0.0 45 0.0 1830 6.01
21.05.18 19:59:01 1004 21.1 20 0.0 2.2 112.5 0.0 2380 6.01
21.05.18 19:54:01 1004 21.3 20 24.0 27 0.0 2.2 112.5 0.0 3780 6.01
21.05.18 19:49:01 1004 21.2 20 24.0 28 0.0 0.0 112.5 0.0 4680 6.01
21.05.18 19:44:01 1004 21.9 20 24.2 26 0.0 0.0 247.5 0.0 4630 6.01
21.05.18 19:39:02 1004 22.0 20 24.2 25 0.0 0.0 247.5 0.0 4010 6.01
21.05.18 19:34:02 1004 22.3 20 24.3 25 0.0 0.0 112.5 0.0 5680 6.01
21.05.18 19:29:02 1004 22.5 20 24.3 24 0.7 0.0 0 0.0 6370 6.01
21.05.18 19:24:02 1004 22.5 20 24.4 25 0.7 0.0 0 0.0 7200 6.01
21.05.18 19:19:02 1004 22.4 20 1.4 6.1 157.5 0.0 6550 6.01
21.05.18 19:14:02 1004 22.5 20 1.1 4.7 180 0.0
21.05.18 19:09:01 1004 22.7 20 24.5 23 1.1 4.7 180 0.0 6730 6.01
21.05.18 19:04:01 1004 23.2 20 24.5 23 0.7 2.9 157.5 0.0 7180 6.01
21.05.18 18:59:01 1004 23.9 20 24.6 23 0.7 0.0 67.5 0.0 7450 6.01
21.05.18 18:54:01 1004 24.5 20 24.9 22 0.7 0.0 67.5 0.0 8000 6.01
21.05.18 18:49:01 1004 26.7 20 25.1 22 1.1 1.8 112.5 0.0 30200 6.01
21.05.18 18:44:01 1004 25.8 20 25.2 20 1.4 2.2 135 0.0 29800 5.56
21.05.18 18:39:02 1004 26.5 20 25.2 20 1.4 2.2 135 0.0 16000 5.53
21.05.18 18:34:02 27.9 20 25.3 21 0.4 1.8 112.5 0.0 32800 5.51
21.05.18 18:29:02 1004 29.9 20 25.5 20 0.0 1.4 135 0.0 52000 5.45
21.05.18 18:24:01 1004 30.2 20 25.4 20 0.0 1.4 135 0.0 51300 5.37
21.05.18 18:19:01 1004 30.4 20 25.4 20 0.0 1.8 135 0.0 53900 5.35
21.05.18 18:14:01 1004 29.5 20 25.3 20 0.0 0.0 225 0.0 56200 5.32
21.05.18 18:09:02 1004 28.8 20 25.4 20 0.0 0.0 225 0.0 55900 5.27
21.05.18 18:04:02 1004 28.5 20 25.4 21 0.0 0.0 225 0.0 58100 5.22
21.05.18 17:59:02 1004 27.5 20 25.5 21 0.4 0.0 315 0.0 40500 5.19
21.05.18 17:54:01 1004 28.8 20 25.6 20 0.4 0.0 315 0.0 61100 5.14
21.05.18 17:49:01 1004 30.1 20 25.6 20 0.4 0.0 270 0.0 61700 5.09
21.05.18 17:44:01 1004 30.0 20 25.6 20 0.4 2.2 292.5 0.0 64400 5.04
21.05.18 17:39:02 1004 28.8 20 25.4 20 0.4 2.2 292.5 0.0 64700 4.56
21.05.18 17:34:02 1004 27.6 20 1.4 0.0 270 0.0 51200 4.53
21.05.18 17:29:02 1004 26.9 20 25.4 21 1.4 4.0 270 0.0 24200 4.48
21.05.18 17:24:02 1004 28.0 20 25.5 21 1.4 4.0 270 0.0 41400 4.45
21.05.18 17:19:02 1004 29.1 20 25.5 20 1.1 1.4 135 0.0 30200 4.37
21.05.18 17:14:02 1004 29.1 20 1.1 0.0 247.5 0.0 43800 4.35
21.05.18 17:09:01 1004 29.7 20 25.7 20 1.1 0.0 247.5 0.0 76400 4.30
21.05.18 17:04:01 1004 27.2 20 25.5 20 0.7 4.0 225 0.0 68000 4.24
21.05.18 16:59:01 1005 27.5 20 25.6 20 1.1 1.8 337.5 0.0 28500 4.19
21.05.18 16:54:02 1005 30.0 20 25.7 20 1.1 1.8 337.5 0.0 71500 4.14
21.05.18 16:49:02 1005 30.0 20 25.6 20 1.4 1.4 225 0.0 67700 4.09
21.05.18 16:44:02 1005 29.2 20 25.4 20 2.9 4.7 247.5 0.0 52900 4.03
21.05.18 16:39:01 1005 25.6 21 2.9 4.7 247.5 0.0 56800 3.58
21.05.18 16:34:01 1005 25.5 20 2.9 3.6 270 0.0 48600 3.53
21.05.18 16:29:01 25.7 21 2.5 7.6 112.5 0.0 65300 3.50
21.05.18 16:24:02 1005 30.3 20 25.6 20 2.5 7.6 112.5 0.0 72900 3.45
21.05.18 16:19:02 1005 29.4 20 25.7 20 2.9 4.7 247.5 0.0 65700 3.40
21.05.18 16:14:02 1005 30.9 20 25.8 21 2.5 2.5 135 0.0 84100 3.34
21.05.18 16:09:02 1005 30.3 20 25.6 20 2.5 2.5 135 0.0 80000 3.29
21.05.18 16:04:02 1005 30.1 20 25.4 21 2.2 2.2 180 0.0 79900 3.24
21.05.18 15:59:02 1005 28.5 20 25.3 21 3.2 3.2 270 0.0 59100 3.19
21.05.18 15:54:01 1005 28.5 20 25.4 21 3.2 3.2 270 0.0 55000 3.13
21.05.18 15:49:01 1005 29.2 20 25.6 22 3.2 2.5 247.5 0.0 59800 3.08
21.05.18 15:44:01 1005 30.6 20 25.4 23 2.9 5.0 135 0.0
21.05.18 15:39:02 1005 29.5 20 25.2 22 2.9 5.0 135 0.0 84200 3.00
21.05.18 15:34:02 1005 28.7 20 25.2 21 2.2 5.0 225 0.0 77900 2.55
21.05.18 15:29:02 1005 28.4 20 25.2 22 2.2 3.6 247.5 0.0 65400 2.50
21.05.18 15:24:03 1005 26.9 20 25.6 21 2.2 3.6 247.5 0.0 43500 2.45
21.05.18 15:19:03 1005 27.5 20 25.5 20 2.5 0.0 247.5 0.0 47600 2.39
21.05.18 15:14:02 1005 28.4 20 25.5 20 2.5 4.0 270 0.0 57900 2.34
21.05.18 15:09:02 1006 28.4 20 25.9 20 2.5 4.0 270 0.0 58900 2.29
21.05.18 15:04:02 1006 28.9 20 25.8 20 2.2 3.6 247.5 0.0 75300 2.24
21.05.18 14:59:02 1005 28.2 20 25.7 20 2.9 2.9 180 0.0 70900 2.18
21.05.18 14:54:02 1005 28.7 20 25.7 20 2.9 2.9 180 0.0 79300 2.13
21.05.18 14:49:02 1005 27.8 20 25.6 20 2.9 2.9 135 0.0 52800 2.08
21.05.18 14:44:02 1005 26.7 20 25.6 20 2.5 5.8 157.5 0.0 58300 2.05
21.05.18 14:39:02 1005 27.1 20 25.8 20 2.5 5.8 157.5 0.0 40800 2.00
21.05.18 14:34:02 1005 26.9 20 25.7 20 2.5 3.2 247.5 0.0 66200 1.55
21.05.18 14:29:02 26.7 20 26.0 20 3.2 2.9 180 0.0 43600 1.47
21.05.18 14:24:02 1005 27.4 20 26.2 20 3.2 2.9 180 0.0 59900 1.44
21.05.18 14:19:02 1005 30.7 20 26.2 20 2.9 5.4 135 0.0 88300 1.39
21.05.18 14:14:02 1005 29.8 20 26.1 20 2.9 4.3 247.5 0.0 109000 1.34
21.05.18 14:09:01 1005 30.0 20 25.9 20 2.9 4.3 247.5 0.0 101000 1.28
21.05.18 14:04:01 1005 29.2 20 25.7 20 2.9 2.9 180 0.0 104000 1.21
21.05.18 13:59:01 1005 29.2 20 25.6 20 3.6 5.0 270 0.0 95400 1.18
21.05.18 13:54:03 1005 28.7 20 25.6 20 3.6 5.0 270 0.0 108000 1.15
21.05.18 13:49:02 1006 29.4 20 25.6 20 3.2 4.7 315 0.0
21.05.18 13:44:02 1006 29.9 20 25.1 24 2.9 6.8 225 0.0 103000 1.05
21.05.18 13:39:02 1006 29.5 20 25.0 23 2.9 6.8 225 0.0 98300 0.57
21.05.18 13:34:02 1006 27.2 20 24.8 23 2.9 4.7 112.5 0.0 84400 0.54
21.05.18 13:29:02 1006 27.0 20 24.8 22 2.9 3.2 225 0.0 76300 0.49
21.05.18 13:24:02 1006 26.8 20 24.7 23 2.9 3.2 225 0.0 61200 0.44
21.05.18 13:19:02 1006 26.9 20 24.8 23 3.2 3.2 270 0.0 43700 0.39
21.05.18 13:14:02 1006 29.1 20 24.9 22 3.2 4.0 180 0.0 94100 0.33
21.05.18 13:09:02 1006 28.9 20 25.1 20 3.2 4.0 180 0.0 89200 0.28
21.05.18 13:04:02 1006 28.2 20 25.3 22 3.6 4.7 247.5 0.0 91900 0.23
21.05.18 12:59:02 1006 29.0 20 25.1 22 3.2 6.1 270 0.0 90200 0.20
21.05.18 12:54:02 1006 29.3 20 24.8 23 3.2 6.1 270 0.0 89600 0.15
21.05.18 12:49:02 1006 28.9 20 24.5 24 3.2 3.2 157.5 0.0 94400 0.10
21.05.18 12:44:02 1006 29.3 20 24.6 25 4.0 5.4 315 0.0 65300 0.04
21.05.18 12:39:03 1006 27.1 20 24.5 24 4.0 5.4 315 0.0 74800 68.15
21.05.18 12:34:03 1006 28.9 20 24.6 25 4.3 5.4 247.5 0.0 90700 68.07
21.05.18 12:29:03 1006 28.5 20 24.1 25 4.0 8.6 225 0.0 89500 68.05
21.05.18 12:24:02 1006 29.0 20 23.6 26 4.0 8.6 225 0.0 90300 67.59
21.05.18 12:19:02 1007 30.0 20 23.5 25 3.6 7.9 225 0.0 92200 67.54
21.05.18 12:14:02 1007 29.5 20 23.8 26 4.0 0.0 45 0.0 93900 67.49
21.05.18 12:09:02 1007 27.6 20 23.6 27 4.0 0.0 45 0.0 75400 67.44
21.05.18 12:04:02 1007 27.8 20 23.4 26 4.3 3.6 247.5 0.0 82900 67.41
21.05.18 11:59:02 1007 27.5 20 23.5 28 4.3 3.6 247.5 0.0 81700 67.36
21.05.18 11:54:02 1007 28.6 20 23.5 28 4.3 3.6 247.5 0.0 76900 67.31
21.05.18 11:49:02 1007 28.9 20 23.4 29 4.0 7.9 180 0.0 76800 67.25
21.05.18 11:44:02 1007 29.2 20 23.3 31 3.6 4.0 270 0.0 70700 67.17
21.05.18 11:39:02 1007 29.2 20 23.0 31 3.6 4.0 270 0.0 81300 67.15
21.05.18 11:34:02 1007 29.2 20 22.7 32 3.6 3.6 292.5 0.0 80100 67.10
21.05.18 11:29:02 1007 28.4 20 22.4 32 2.9 4.3 180 0.0 78800 67.04
21.05.18 11:24:02 1007 22.3 32 2.9 4.3 180 0.0 77500 66.59
21.05.18 11:19:02 1007 22.1 34 3.2 1.4 112.5 0.0 76800 66.54
21.05.18 11:14:02 1007 21.8 33 3.2 4.0 157.5 0.0 76000 66.51
21.05.18 11:09:02 1007 28.1 20 22.0 34 3.2 4.0 157.5 0.0 75400 66.46
21.05.18 11:04:02 1007 27.4 20 21.8 34 4.0 4.0 180 0.0 74200 66.41
21.05.18 10:59:02 1007 27.4 20 21.9 34 3.6 4.7 225 0.0 72800 66.33
21.05.18 10:54:03 1007 25.9 20 21.6 35 3.6 4.7 225 0.0 72200 66.28
21.05.18 10:49:02 1007 27.0 20 21.4 37 3.2 5.8 292.5 0.0 71300 66.25
21.05.18 10:44:02 1007 25.6 20 21.2 36 3.6 6.1 225 0.0 70300 66.20
21.05.18 10:39:02 1007 25.3 20 20.9 37 3.6 6.1 225 0.0 69600 66.14
21.05.18 10:34:02 1007 26.8 20 20.7 38 3.6 3.2 247.5 0.0 68600 66.09
21.05.18 10:29:02 1007 26.9 20 20.5 39 4.0 7.6 202.5 0.0 67600 66.04
21.05.18 10:24:02 1008 25.9 20 20.1 40 4.0 7.6 202.5 0.0 67000 66.01
21.05.18 10:19:02 1008 26.8 20 20.0 40 3.6 8.6 247.5 0.0 66000 65.56
21.05.18 10:14:02 1008 25.3 20 19.8 40 3.2 4.3 270 0.0 65200 65.51
21.05.18 10:09:03 1008 25.3 20 19.5 40 3.2 4.3 270 0.0 64200 65.46
21.05.18 10:04:03 1008 25.7 20 19.2 42 3.2 4.3 270 0.0 63100 65.40
21.05.18 09:59:03 1008 23.4 20 18.9 41 3.2 5.8 225 0.0 61400 65.35
21.05.18 09:54:02 1008 23.3 20 18.9 41 3.2 5.8 225 0.0 49000 65.30
21.05.18 09:49:02 1008 25.0 20 18.7 41 2.9 3.2 315 0.0 61600 65.25
21.05.18 09:44:02 1008 25.1 20 18.4 41 2.9 2.2 157.5 0.0 58700 65.17
21.05.18 09:39:02 1008 24.1 20 18.2 42 2.9 2.2 157.5 0.0 58000 65.14
21.05.18 09:34:02 1008 25.2 20 18.1 42 2.5 2.9 247.5 0.0 56800 65.09
21.05.18 09:29:02 1008 24.5 20 17.9 42 3.2 2.2 270 0.0 56200 65.06
21.05.18 09:24:02 1008 24.1 20 17.9 42 3.2 2.2 270 0.0 54800 65.01
21.05.18 09:19:02 1008 23.4 20 17.9 43 3.2 4.7 22.5 0.0 54800 64.56
21.05.18 09:14:02 1008 23.9 20 17.7 45 2.9 4.3 225 0.0 52700 64.48
21.05.18 09:09:02 1008 24.1 20 17.6 45 2.9 4.3 225 0.0 52500 64.45
21.05.18 09:04:02 1008 24.7 20 17.4 44 2.9 4.3 180 0.0 52900 64.40
21.05.18 08:59:02 1008 23.7 20 17.2 45 2.9 3.6 202.5 0.0 52800 64.35
21.05.18 08:54:02 1008 17.2 47 2.9 3.6 202.5 0.0 48200 64.29
21.05.18 08:49:02 1008 17.2 50 2.9 4.0 247.5 0.0 48100 64.24
21.05.18 08:44:02 1008 17.1 51 2.9 2.2 270 0.0 46200 64.19
21.05.18 08:39:03 1008 21.5 20 2.9 2.2 270 0.0 44300 64.16
21.05.18 08:34:03 1008 22.9 20 17.1 53 2.9 3.2 45 0.0 43900 64.13
21.05.18 08:29:02 1008 22.5 20 16.9 56 2.5 4.0 202.5 0.0 44400 64.08
21.05.18 08:24:02 1008 21.8 20 16.8 57 2.5 4.0 202.5 0.0 43300 64.03
21.05.18 08:19:02 1008 21.7 20 16.6 58 2.9 5.0 315 0.0 41000 63.57
21.05.18 08:14:02 1008 21.7 20 16.5 60 2.5 2.9 22.5 0.0 36700 63.52
21.05.18 08:09:03 1008 20.1 20 16.3 61 2.5 2.9 22.5 0.0 35000 63.47
21.05.18 08:04:03 1008 18.1 20 16.3 63 2.2 3.2 45 0.0 31800 63.42
21.05.18 07:59:03 1008 16.3 20 16.1 66 2.5 2.9 247.5 0.0 37400 63.36
21.05.18 07:54:02 1008 15.8 20 2.5 2.9 247.5 0.0 21100 63.31
21.05.18 07:49:02 1008 15.1 20 15.7 68 2.2 3.6 180 0.0 16700 63.31
21.05.18 07:44:02 1008 14.7 20 15.4 70 2.2 2.9 247.5 0.0 14700 63.31
21.05.18 07:39:03 1008 14.5 20 15.3 70 2.2 2.9 247.5 0.0 12600 63.31
21.05.18 07:34:03 1008 14.2 20 15.3 71 1.8 2.5 135 0.0 10400 63.31
21.05.18 07:29:03 1009 14.1 20 15.3 71 2.5 2.5 270 0.0 8720 63.31
21.05.18 07:24:02 1009 14.0 20 15.2 72 2.5 2.5 270 0.0 9010 63.31
21.05.18 07:19:02 1009 13.9 20 15.1 73 1.8 2.2 247.5 0.0 9130 63.31
21.05.18 07:14:02 1009 13.5 23 15.0 74 1.4 2.2 157.5 0.0 8410 63.31
21.05.18 07:09:02 1009 13.3 24 15.0 75 1.4 2.2 157.5 0.0 7550 63.31
21.05.18 07:04:02 1009 12.9 30 14.9 76 2.2 2.2 247.5 0.0 5650 63.31
21.05.18 06:59:02 1009 12.7 32 14.9 77 1.8 2.5 337.5 0.0 4820 63.31
21.05.18 06:54:03 1009 12.6 35 14.8 77 1.8 2.5 337.5 0.0 4580 63.31
21.05.18 06:49:03 1009 12.5 37 14.8 77 1.8 2.9 202.5 0.0 4080 63.31
21.05.18 06:44:03 12.2 42 14.8 78 1.4 0.0 247.5 0.0 4010 63.31
21.05.18 06:39:03 1009 11.9 47 14.8 78 1.4 0.0 247.5 0.0 3960 63.31
21.05.18 06:34:03 1009 11.7 48 14.8 77 1.4 2.5 247.5 0.0 2930 63.31
21.05.18 06:29:03 1009 11.3 49 14.8 78 1.4 2.9 247.5 0.0 1730 63.31
21.05.18 06:24:02 1009 11.0 50 14.8 78 1.4 2.9 247.5 0.0 1260 63.31
21.05.18 06:19:02 1009 11.0 50 14.8 78 0.7 2.2 315 0.0 1110 63.31
21.05.18 06:14:02 1009 10.9 51 14.8 79 0.7 3.2 157.5 0.0 890 63.31
21.05.18 06:09:04 1009 10.9 51 14.8 79 0.7 3.2 157.5 0.0 787 63.31
21.05.18 06:04:03 1009 10.9 51 14.8 79 0.4 0.0 247.5 0.0 689 63.31
21.05.18 05:59:03 1009 10.9 50 14.8 79 0.4 0.0 270 0.0 665 63.31
21.05.18 05:54:03 1009 10.9 50 14.8 79 0.4 0.0 270 0.0 553 63.31
21.05.18 05:49:03 1009 11.0 50 14.8 79 0.4 1.4 247.5 0.0 389 63.31
21.05.18 05:44:03 1009 11.0 50 14.8 78 0.0 0.0 180 0.0 279 63.31
21.05.18 05:39:03 1009 11.0 49 14.8 78 0.0 0.0 180 0.0 182 63.31
21.05.18 05:34:03 1009 11.1 49 14.8 77 0.0 0.0 247.5 0.0 98 63.31
21.05.18 05:29:03 1009 11.0 48 14.8 77 0.0 0.0 270 0.0 53 63.31
21.05.18 05:24:02 1009 11.0 46 14.8 77 0.0 0.0 270 0.0 0 63.31
21.05.18 05:19:02 1009 11.2 45 14.8 77 0.0 0.0 337.5 0.0 0 63.31
21.05.18 05:14:02 1009 11.3 45 14.8 77 0.0 0.0 225 0.0 0 63.31
21.05.18 05:09:03 1009 11.2 43 14.7 77 0.0 0.0 225 0.0 0 63.31
21.05.18 05:04:03 1009 11.2 42 14.7 76 0.0 0.0 315 0.0 0 63.31
21.05.18 04:59:03 1009 11.1 40 14.7 76 0.0 0.0 0 0.0 0 63.31
21.05.18 04:54:02 1009 11.3 39 14.7 76 0.0 0.0 0 0.0 0 63.31
21.05.18 04:49:02 1009 11.6 39 14.7 76 0.0 0.0 202.5 0.0 0 63.31
21.05.18 04:44:02 1009 11.5 40 14.7 75 0.0 0.0 315 0.0 0 63.31
21.05.18 04:39:03 1009 11.6 41 14.7 75 0.0 0.0 315 0.0 0 63.31
21.05.18 04:34:03 1009 11.5 40 0.0 0.0 337.5 0.0 0 63.31
21.05.18 04:29:03 1009 14.7 75 0.0 0.0 225 0.0 0 63.31
21.05.18 04:24:03 1009 11.5 40 14.8 75 0.0 0.0 225 0.0 0 63.31
21.05.18 04:19:03 1009 11.4 39 14.7 74 0.0 0.0 315 0.0 0 63.31
21.05.18 04:14:03 1009 11.5 38 14.7 74 0.0 0.0 337.5 0.0 0 63.31
21.05.18 04:09:02 1009 11.5 37 14.7 74 0.0 0.0 337.5 0.0 0 63.31
21.05.18 04:04:02 1010 11.5 36 14.6 74 0.0 0.0 225 0.0 0 63.31
21.05.18 03:59:02 1010 14.7 73 0.0 0.0 112.5 0.0 0 63.31
21.05.18 03:54:04 1010 11.7 34 14.7 72 0.0 0.0 112.5 0.0 0 63.31
21.05.18 03:49:04 11.7 34 14.7 72 0.0 0.0 112.5 0.0 0 63.31
21.05.18 03:44:04 1010 11.7 34 14.8 72 0.0 0.0 67.5 0.0 0 63.31
21.05.18 03:39:03 1010 11.7 34 0.0 0.0 67.5 0.0 0 63.31
21.05.18 03:34:03 1010 11.7 34 14.8 72 0.0 0.0 67.5 0.0 0 63.31
21.05.18 03:29:03 1010 11.8 32 14.8 71 0.0 0.0 67.5 0.0 0 63.31
21.05.18 03:24:03 1010 14.8 71 0.0 0.0 67.5 0.0 0 63.31
21.05.18 03:19:03 1010 11.7 33 0.0 0.0 112.5 0.0 0 63.31
21.05.18 03:14:03 1010 11.6 33 14.9 71 0.0 0.0 112.5 0.0 0 63.31
21.05.18 03:09:03 1010 11.6 34 15.0 70 0.0 0.0 112.5 0.0 0 63.31
21.05.18 03:04:03 1010 11.6 34 15.1 70 0.0 0.0 22.5 0.0 0 63.31
21.05.18 02:59:03 1010 11.8 32 15.1 70 0.0 0.0 135 0.0 0 63.31
21.05.18 02:53:01 1010 15.1 70 0.0 0.0 135 0.0 0 63.31
21.05.18 02:48:01 1010 12.0 31 15.1 70 0.0 1.4 292.5 0.0 0 63.31
21.05.18 02:43:01 1010 11.9 32 15.2 70 0.0 0.0 112.5 0.0 0 63.31
21.05.18 02:38:02 1010 11.9 31 15.3 69 0.0 0.0 112.5 0.0 0 63.31
21.05.18 02:33:02 1010 12.0 31 15.3 69 0.0 0.0 67.5 0.0 0 63.31
21.05.18 02:28:02 1010 12.0 31 15.4 69 0.0 0.0 135 0.0 0 63.31
Index
© 2002-2012 Thomas Dreßler
Alle Rechte vorbehalten
letzte Scriptänderung 12.11.2012